Time;durP1;ratioP1;P1;durP2;ratioP2;P2;SDS_P1;SDS_P2;PMS_P1;PMS_P2;Temp;Humidity;BMP_temperature;BMP_pressure;BME280_temperature;BME280_humidity;BME280_pressure;Samples;Min_cycle;Max_cycle;Signal;HPM_P1;HPM_P2
2022/12/19 00:00:47;;;;;;;22.30;10.30;;;;;;;5.33;100.00;102447.09;5013061;28;20034;-79
2022/12/19 00:03:13;;;;;;;17.98;10.52;;;;;;;5.01;100.00;102412.72;5011151;28;20381;-86
2022/12/19 00:05:40;;;;;;;35.15;12.32;;;;;;;5.28;100.00;102468.84;5012224;28;20080;-79
2022/12/19 00:08:12;;;;;;;29.98;11.55;;;;;;;5.17;100.00;102465.28;4976952;28;20411;-78
2022/12/19 00:10:37;;;;;;;24.92;10.65;;;;;;;5.21;100.00;102489.53;5000045;28;20041;-85
2022/12/19 00:13:02;;;;;;;23.73;10.82;;;;;;;5.19;100.00;102476.59;4975458;28;20026;-86
2022/12/19 00:15:28;;;;;;;23.17;9.95;;;;;;;5.18;100.00;102473.16;4992785;28;20030;-88
2022/12/19 00:17:54;;;;;;;31.48;10.63;;;;;;;5.06;100.00;102486.47;4975678;28;20040;-84
2022/12/19 00:20:19;;;;;;;33.50;11.40;;;;;;;4.89;100.00;102470.47;4983397;28;20030;-84
2022/12/19 00:22:45;;;;;;;34.28;10.93;;;;;;;4.34;100.00;102367.38;4992294;28;20029;-83
2022/12/19 00:25:11;;;;;;;43.75;12.38;;;;;;;5.21;100.00;102526.28;4992279;28;20022;-82
2022/12/19 00:27:36;;;;;;;50.42;13.15;;;;;;;4.59;100.00;102397.78;4994527;28;20080;-83
2022/12/19 00:30:02;;;;;;;34.30;11.65;;;;;;;4.78;100.00;102432.75;4992108;28;20039;-84
2022/12/19 00:32:27;;;;;;;41.22;13.02;;;;;;;4.72;100.00;102427.06;4991418;28;20465;-83
2022/12/19 00:34:53;;;;;;;26.55;10.68;;;;;;;4.64;100.00;102419.56;4991821;28;20023;-83
2022/12/19 00:37:18;;;;;;;16.25;8.57;;;;;;;4.78;100.00;102438.75;4992082;28;20093;-83
2022/12/19 00:39:44;;;;;;;26.70;9.95;;;;;;;4.80;100.00;102437.25;4991938;28;20027;-83
2022/12/19 00:42:09;;;;;;;26.20;8.68;;;;;;;5.11;100.00;102480.09;4992074;28;20397;-84
2022/12/19 00:44:35;;;;;;;21.23;9.52;;;;;;;4.73;100.00;102432.31;4992134;28;20057;-83
2022/12/19 00:47:00;;;;;;;22.38;9.18;;;;;;;4.82;100.00;102434.81;4991630;28;20042;-83
2022/12/19 00:49:26;;;;;;;37.63;12.57;;;;;;;4.80;100.00;102436.38;4991711;28;20022;-84
2022/12/19 00:51:51;;;;;;;20.55;8.40;;;;;;;4.54;100.00;102422.94;4991764;28;20030;-83
2022/12/19 00:54:17;;;;;;;38.42;12.25;;;;;;;4.46;100.00;102399.97;5005188;28;20503;-84
2022/12/19 00:56:42;;;;;;;26.63;10.68;;;;;;;4.29;100.00;102353.28;5011368;28;20030;-84
2022/12/19 00:59:09;;;;;;;42.95;13.85;;;;;;;4.46;100.00;102370.19;5011609;28;20052;-84
2022/12/19 01:01:39;;;;;;;47.65;13.38;;;;;;;4.82;100.00;102429.69;4993486;28;20034;-82
2022/12/19 01:04:05;;;;;;;;;;;;;;;5.28;100.00;102515.88;4961300;28;20125;-82
2022/12/19 01:06:30;;;;;;;44.78;11.52;;;;;;;4.87;100.00;102459.19;5011309;28;20015;-83
2022/12/19 01:08:56;;;;;;;45.55;12.20;;;;;;;4.84;100.00;102454.69;4998493;28;20050;-83
2022/12/19 01:12:44;;;;;;;43.40;12.18;;;;;;;5.12;100.00;102507.50;5009516;28;20061;-82
2022/12/19 01:14:07;;;;;;;37.88;12.05;;;;;;;4.36;100.00;102377.75;4990510;28;20030;-81
2022/12/19 01:16:33;;;;;;;25.95;10.20;;;;;;;4.69;100.00;102422.56;4990998;28;20080;-81
2022/12/19 01:18:58;;;;;;;34.60;11.38;;;;;;;4.71;100.00;102426.19;5004615;28;20476;-80
2022/12/19 01:21:24;;;;;;;23.25;10.50;;;;;;;4.77;100.00;102453.97;4997359;28;20038;-77
2022/12/19 01:23:49;;;;;;;20.23;10.23;;;;;;;5.14;100.00;102512.00;4992298;28;20053;-78
2022/12/19 01:26:15;;;;;;;17.45;8.30;;;;;;;4.91;100.00;102470.59;4992411;28;20034;-79
2022/12/19 01:28:40;;;;;;;25.13;9.52;;;;;;;4.96;100.00;102510.31;4990578;28;20412;-77
2022/12/19 01:31:06;;;;;;;15.68;8.60;;;;;;;4.86;100.00;102495.78;4991209;28;20037;-78
2022/12/19 01:33:31;;;;;;;17.45;8.77;;;;;;;4.86;100.00;102504.34;4991314;28;20142;-78
2022/12/19 01:35:56;;;;;;;16.48;7.78;;;;;;;4.73;100.00;102496.28;4988973;28;20034;-81
2022/12/19 01:38:22;;;;;;;14.70;8.90;;;;;;;4.77;100.00;102497.47;5007210;28;20040;-78
2022/12/19 01:40:56;;;;;;;17.75;8.38;;;;;;;4.58;100.00;102469.28;5003122;28;20038;-80
2022/12/19 01:43:23;;;;;;;16.60;7.70;;;;;;;4.73;100.00;102506.53;4990432;28;20050;-79
2022/12/19 01:46:04;;;;;;;12.90;7.53;;;;;;;4.65;100.00;102489.56;4991108;28;20033;-78
2022/12/19 01:48:42;;;;;;;14.00;8.10;;;;;;;4.74;100.00;102504.88;4990615;28;20034;-80
2022/12/19 01:51:10;;;;;;;12.52;7.97;;;;;;;4.73;100.00;102500.50;4990681;28;20030;-80
2022/12/19 01:53:45;;;;;;;14.52;7.95;;;;;;;4.69;100.00;102495.09;4990328;28;20542;-80
2022/12/19 01:56:11;;;;;;;14.80;8.77;;;;;;;4.62;100.00;102482.50;4991301;28;20064;-80
2022/12/19 01:58:46;;;;;;;14.93;7.85;;;;;;;4.69;100.00;102499.31;4991044;28;20026;-81
2022/12/19 02:01:14;;;;;;;15.05;8.55;;;;;;;4.49;100.00;102489.78;4990861;28;20041;-80
2022/12/19 02:03:40;;;;;;;14.98;8.77;;;;;;;4.62;100.00;102499.50;4990520;28;20113;-79
2022/12/19 02:06:07;;;;;;;14.10;7.95;;;;;;;4.35;100.00;102460.38;4990075;28;20465;-82
2022/12/19 02:08:34;;;;;;;15.00;8.80;;;;;;;4.52;100.00;102484.94;4955317;28;20480;-82
2022/12/19 02:10:59;;;;;;;13.80;8.98;;;;;;;4.29;100.00;102454.66;4990744;28;20040;-81
2022/12/19 02:13:25;;;;;;;15.88;9.20;;;;;;;4.41;100.00;102485.59;4991169;28;20041;-82
2022/12/19 02:16:20;;;;;;;13.27;8.68;;;;;;;4.47;100.00;102478.50;4990887;28;20026;-81
2022/12/19 02:19:03;;;;;;;13.35;8.50;;;;;;;4.51;100.00;102494.28;4891695;29;20068;-81
2022/12/19 02:21:28;;;;;;;15.82;8.93;;;;;;;4.47;100.00;102511.75;4892269;29;20048;-79
2022/12/19 02:24:32;;;;;;;15.60;9.23;;;;;;;4.33;100.00;102483.22;4891949;29;20035;-80
2022/12/19 02:27:13;;;;;;;18.40;10.00;;;;;;;4.25;100.00;102473.94;4873093;29;20047;-79
2022/12/19 02:29:42;;;;;;;16.70;9.70;;;;;;;4.44;100.00;102521.72;4872219;29;20056;-78
2022/12/19 02:32:18;;;;;;;15.07;8.75;;;;;;;4.45;100.00;102529.53;4871803;29;20049;-80
2022/12/19 02:34:55;;;;;;;15.25;9.27;;;;;;;4.44;100.00;102514.03;4873204;29;20048;-82
2022/12/19 02:37:35;;;;;;;17.60;9.48;;;;;;;4.37;100.00;102526.25;4873911;29;20041;-85
2022/12/19 02:40:20;;;;;;;17.63;8.70;;;;;;;4.23;100.00;102501.00;4873615;29;20817;-81
2022/12/19 02:42:51;;;;;;;15.68;9.13;;;;;;;4.21;100.00;102498.31;4873357;29;20063;-80
2022/12/19 02:45:18;;;;;;;17.38;8.95;;;;;;;4.36;100.00;102534.66;4858240;29;20064;-83
2022/12/19 02:47:44;;;;;;;16.10;10.40;;;;;;;4.25;100.00;102516.47;4873650;29;20037;-82
2022/12/19 02:50:10;;;;;;;16.02;9.38;;;;;;;4.26;100.00;102521.75;4873606;29;20665;-80
2022/12/19 02:52:35;;;;;;;20.02;10.18;;;;;;;4.49;100.00;102552.06;4873387;29;20041;-84
2022/12/19 02:55:09;;;;;;;19.80;10.10;;;;;;;4.52;100.00;102531.91;4908309;28;20122;-84
2022/12/19 02:57:43;;;;;;;17.08;10.30;;;;;;;4.70;100.00;102532.72;4948517;28;20078;-83
2022/12/19 03:00:09;;;;;;;17.85;10.27;;;;;;;4.82;100.00;102545.78;4948696;28;20031;-82
2022/12/19 03:02:54;;;;;;;19.70;10.68;;;;;;;4.89;100.00;102541.25;4958019;28;20048;-82
2022/12/19 03:05:22;;;;;;;21.17;12.15;;;;;;;4.83;100.00;102526.19;4990220;28;20507;-85
2022/12/19 03:07:50;;;;;;;19.08;12.27;;;;;;;4.91;100.00;102540.63;4989667;28;20065;-84
2022/12/19 03:10:32;;;;;;;24.90;13.77;;;;;;;4.99;100.00;102551.56;4989560;28;20034;-84
2022/12/19 03:13:05;;;;;;;20.63;12.60;;;;;;;5.02;100.00;102559.53;4989508;28;20032;-83
2022/12/19 03:15:32;;;;;;;26.35;14.63;;;;;;;4.76;100.00;102514.50;4990309;28;20038;-85
2022/12/19 03:17:59;;;;;;;22.25;13.73;;;;;;;4.83;100.00;102549.22;4972514;28;20054;-82
2022/12/19 03:20:47;;;;;;;23.60;14.65;;;;;;;4.79;100.00;102562.50;4990321;28;20481;-83
2022/12/19 03:23:13;;;;;;;24.70;14.68;;;;;;;4.79;100.00;102562.50;4998273;28;20026;-83
2022/12/19 03:25:42;;;;;;;23.17;14.02;;;;;;;4.40;100.00;102511.91;5012126;28;20034;-84
2022/12/19 03:28:15;;;;;;;25.13;14.73;;;;;;;4.66;100.00;102574.13;5013534;28;20022;-84
2022/12/19 03:30:43;;;;;;;24.48;14.63;;;;;;;4.57;100.00;102578.38;5013458;28;20041;-84
2022/12/19 03:33:10;;;;;;;25.92;14.85;;;;;;;4.25;100.00;102550.63;5013211;28;20480;-84
2022/12/19 03:35:37;;;;;;;29.73;15.27;;;;;;;4.20;100.00;102549.28;5013197;28;20111;-83
2022/12/19 03:38:05;;;;;;;26.80;15.32;;;;;;;4.29;100.00;102562.06;5013195;28;20034;-84
2022/12/19 03:40:33;;;;;;;25.05;15.20;;;;;;;4.43;100.00;102579.59;5013328;28;20041;-83
2022/12/19 03:43:08;;;;;;;28.27;15.43;;;;;;;4.24;100.00;102541.16;5012974;28;20057;-84
2022/12/19 03:46:08;;;;;;;28.60;16.88;;;;;;;4.46;100.00;102584.13;4995366;28;20077;-84
2022/12/19 03:48:45;;;;;;;26.15;15.13;;;;;;;4.37;100.00;102600.41;5012892;28;20385;-84
2022/12/19 03:51:16;;;;;;;26.92;15.55;;;;;;;4.33;100.00;102598.28;5013191;28;20026;-84
2022/12/19 03:54:00;;;;;;;30.05;15.75;;;;;;;4.31;100.00;102597.25;5012736;28;20034;-85
2022/12/19 03:56:56;;;;;;;28.33;16.17;;;;;;;4.34;100.00;102599.19;5012738;28;20032;-85
2022/12/19 03:59:33;;;;;;;26.23;15.38;;;;;;;4.38;100.00;102601.28;5013234;28;20026;-84
2022/12/19 04:02:01;;;;;;;25.80;15.48;;;;;;;4.21;100.00;102574.06;5012987;28;20049;-84
2022/12/19 04:04:28;;;;;;;28.00;15.52;;;;;;;4.36;100.00;102596.03;5012601;28;20714;-84
2022/12/19 04:06:54;;;;;;;26.20;15.52;;;;;;;4.40;100.00;102611.66;5012458;28;20120;-83
2022/12/19 04:09:22;;;;;;;29.25;15.68;;;;;;;4.26;100.00;102578.00;5012658;28;20558;-84
2022/12/19 04:11:54;;;;;;;27.42;15.75;;;;;;;4.23;100.00;102580.25;4995043;28;20157;-82
2022/12/19 04:14:26;;;;;;;26.80;15.52;;;;;;;4.42;100.00;102623.84;4994933;28;20032;-83
2022/12/19 04:16:51;;;;;;;24.05;12.88;;;;;;;4.44;100.00;102621.44;5012466;28;20026;-83
2022/12/19 04:19:24;;;;;;;20.23;9.85;;;;;;;4.36;100.00;102611.38;5012478;28;20033;-82
2022/12/19 04:21:55;;;;;;;16.48;9.50;;;;;;;4.48;100.00;102636.34;5012299;28;20030;-82
2022/12/19 04:24:29;;;;;;;16.17;8.73;;;;;;;4.43;100.00;102617.09;5012018;28;20419;-83
2022/12/19 04:26:58;;;;;;;21.98;9.93;;;;;;;4.44;100.00;102614.66;5012982;28;20034;-82
2022/12/19 04:29:25;;;;;;;18.08;7.50;;;;;;;4.55;100.00;102628.50;5012176;28;20029;-81
2022/12/19 04:31:51;;;;;;;15.68;6.55;;;;;;;4.50;100.00;102630.59;4994750;28;20041;-81
2022/12/19 04:34:19;;;;;;;13.95;5.53;;;;;;;4.50;100.00;102640.84;5012516;28;20435;-81
2022/12/19 04:36:46;;;;;;;18.23;5.70;;;;;;;4.40;100.00;102609.09;5011660;28;20477;-81
2022/12/19 04:39:12;;;;;;;13.98;5.80;;;;;;;4.56;100.00;102640.53;4994532;28;20476;-82
2022/12/19 04:41:37;;;;;;;24.20;7.13;;;;;;;4.37;100.00;102591.81;5012396;28;20080;-81
2022/12/19 04:44:03;;;;;;;21.92;7.47;;;;;;;4.70;100.00;102654.66;5011882;28;20451;-80
2022/12/19 04:46:28;;;;;;;18.23;6.30;;;;;;;4.45;100.00;102592.53;5011363;28;20092;-80
2022/12/19 04:48:53;;;;;;;13.80;5.30;;;;;;;4.72;100.00;102636.88;5011856;28;20026;-80
2022/12/19 04:51:19;;;;;;;7.45;3.90;;;;;;;4.57;100.00;102642.31;4994242;28;20034;-80
2022/12/19 04:53:44;;;;;;;7.05;3.50;;;;;;;4.15;99.53;102597.41;5011955;28;20034;-79
2022/12/19 04:56:10;;;;;;;7.70;3.85;;;;;;;4.04;97.37;102616.81;5011765;28;20033;-80
2022/12/19 04:58:35;;;;;;;7.03;3.65;;;;;;;3.83;96.21;102623.25;5011536;28;20038;-80
2022/12/19 05:01:02;;;;;;;14.77;4.68;;;;;;;4.02;96.75;102664.31;5011649;28;20033;-80
2022/12/19 05:03:28;;;;;;;18.35;5.85;;;;;;;3.94;97.98;102637.13;5011795;28;20044;-79
2022/12/19 05:06:03;;;;;;;13.85;5.25;;;;;;;4.12;99.04;102661.00;5011709;28;20034;-80
2022/12/19 05:08:29;;;;;;;9.93;4.38;;;;;;;4.04;99.71;102639.81;5011619;28;20439;-80
2022/12/19 05:10:58;;;;;;;13.98;5.00;;;;;;;4.26;100.00;102664.94;5011227;28;20026;-81
2022/12/19 05:13:24;;;;;;;9.80;5.28;;;;;;;4.21;99.57;102653.34;5011378;28;20056;-80
2022/12/19 05:16:07;;;;;;;6.82;3.55;;;;;;;3.94;99.22;102609.00;5011180;28;20026;-85
2022/12/19 05:18:34;;;;;;;6.78;3.72;;;;;;;4.10;99.08;102659.97;5011719;28;20100;-84
2022/12/19 05:20:59;;;;;;;8.82;4.60;;;;;;;3.98;99.72;102652.00;5011035;28;20026;-84
2022/12/19 05:23:25;;;;;;;9.98;3.78;;;;;;;3.91;99.85;102654.69;4993831;28;20041;-84
2022/12/19 05:25:50;;;;;;;10.48;4.97;;;;;;;3.81;100.00;102644.31;5011375;28;20113;-84
2022/12/19 05:28:17;;;;;;;8.90;4.65;;;;;;;4.07;100.00;102686.88;5010937;28;20057;-84
2022/12/19 05:30:42;;;;;;;9.38;4.32;;;;;;;4.08;100.00;102696.38;5011125;28;20125;-84
2022/12/19 05:33:08;;;;;;;11.07;5.05;;;;;;;3.99;100.00;102684.47;4993690;28;20026;-84
2022/12/19 05:35:34;;;;;;;8.43;3.65;;;;;;;3.85;100.00;102675.44;5011045;28;20030;-84
2022/12/19 05:38:00;;;;;;;11.45;4.55;;;;;;;3.48;100.00;102624.88;4993722;28;20052;-84
2022/12/19 05:40:25;;;;;;;6.75;4.18;;;;;;;3.95;100.00;102714.66;4993310;28;20034;-84
2022/12/19 05:42:51;;;;;;;7.82;4.07;;;;;;;3.90;100.00;102701.47;5010533;28;20078;-84
2022/12/19 05:45:16;;;;;;;14.48;4.97;;;;;;;3.91;100.00;102703.22;5023247;28;20042;-83
2022/12/19 05:47:45;;;;;;;10.38;4.63;;;;;;;3.70;100.00;102673.88;5010470;28;20034;-84
2022/12/19 05:50:11;;;;;;;8.10;3.93;;;;;;;3.60;100.00;102666.97;4993274;28;20117;-84
2022/12/19 05:52:37;;;;;;;10.45;4.40;;;;;;;3.64;100.00;102669.09;5010876;28;20029;-84
2022/12/19 05:55:04;;;;;;;9.63;3.75;;;;;;;3.94;100.00;102715.41;5010804;28;20032;-84
2022/12/19 05:57:29;;;;;;;13.52;4.60;;;;;;;3.95;100.00;102713.03;5010526;28;20034;-84
2022/12/19 05:59:55;;;;;;;17.65;5.38;;;;;;;3.82;100.00;102690.44;5011081;28;20740;-84
2022/12/19 06:02:20;;;;;;;13.77;5.57;;;;;;;3.84;99.20;102682.97;4975689;28;20045;-84
2022/12/19 06:04:45;;;;;;;13.45;5.10;;;;;;;3.97;97.71;102716.63;4993144;28;20121;-84
2022/12/19 06:07:11;;;;;;;17.30;5.75;;;;;;;3.82;98.49;102697.22;5010730;28;20101;-84
2022/12/19 06:09:36;;;;;;;19.25;6.60;;;;;;;3.90;96.79;102711.69;5010139;28;20029;-84
2022/12/19 06:12:02;;;;;;;19.83;7.38;;;;;;;4.13;97.06;102741.19;4992271;28;20033;-85
2022/12/19 06:14:27;;;;;;;20.17;7.32;;;;;;;4.13;97.57;102743.72;5010455;28;20077;-85
2022/12/19 06:16:53;;;;;;;27.55;7.43;;;;;;;3.99;93.94;102733.03;5010549;28;20611;-85
2022/12/19 06:19:21;;;;;;;20.27;7.07;;;;;;;4.17;93.67;102753.50;5010346;28;20030;-84
2022/12/19 06:21:47;;;;;;;27.48;7.75;;;;;;;4.21;94.36;102747.94;4992855;28;20038;-84
2022/12/19 06:24:12;;;;;;;35.58;12.60;;;;;;;4.12;94.52;102739.38;4992705;28;20076;-86
2022/12/19 06:26:38;;;;;;;14.32;7.07;;;;;;;4.01;95.22;102744.31;4992314;28;20033;-84
2022/12/19 06:29:03;;;;;;;13.73;5.35;;;;;;;4.16;94.23;102759.38;5010460;28;20056;-79
2022/12/19 06:31:28;;;;;;;13.10;5.05;;;;;;;4.05;93.99;102742.97;5010140;28;20460;-79
2022/12/19 06:33:54;;;;;;;9.32;4.88;;;;;;;3.99;95.08;102744.91;5009887;28;20111;-77
2022/12/19 06:36:25;;;;;;;24.70;7.38;;;;;;;4.11;92.05;102773.34;5009866;28;20057;-78
2022/12/19 06:38:52;;;;;;;27.30;8.88;;;;;;;3.79;90.29;102736.13;4967948;28;20514;-77
2022/12/19 06:44:05;;;;;;;21.70;5.97;;;;;;;4.00;91.44;102772.25;4968541;28;20617;-77
2022/12/19 06:46:31;;;;;;;15.15;5.53;;;;;;;4.11;91.10;102789.59;4968650;28;20039;-78
2022/12/19 06:48:57;;;;;;;21.95;5.93;;;;;;;3.96;89.74;102757.38;4968710;28;20023;-77
2022/12/19 06:51:23;;;;;;;13.65;4.72;;;;;;;4.09;89.67;102757.88;4968406;28;20431;-78
2022/12/19 06:53:48;;;;;;;10.20;4.40;;;;;;;4.02;88.57;102769.09;4967948;28;20045;-77
2022/12/19 06:56:15;;;;;;;10.52;4.55;;;;;;;4.12;86.03;102805.84;4952087;28;20588;-77
2022/12/19 06:58:41;;;;;;;19.13;4.70;;;;;;;4.25;88.64;102815.63;4953359;28;20030;-78
2022/12/19 07:01:07;;;;;;;21.48;6.90;;;;;;;4.14;87.52;102797.56;4972512;28;20070;-78
2022/12/19 07:03:38;;;;;;;17.35;5.65;;;;;;;4.03;90.52;102781.13;4972814;28;20035;-78
2022/12/19 07:06:05;;;;;;;17.63;5.72;;;;;;;4.11;89.59;102791.25;4972271;28;20035;-79
2022/12/19 07:08:30;;;;;;;10.52;4.80;;;;;;;4.11;85.45;102817.72;4972777;28;20035;-80
2022/12/19 07:10:57;;;;;;;14.85;4.75;;;;;;;4.13;88.42;102821.31;4972436;28;20039;-79
2022/12/19 07:13:22;;;;;;;23.75;5.43;;;;;;;4.08;85.82;102806.28;4972153;28;20035;-80
2022/12/19 07:15:49;;;;;;;21.30;5.68;;;;;;;4.05;85.92;102796.66;4984540;28;20522;-79
2022/12/19 07:18:15;;;;;;;13.57;4.95;;;;;;;4.05;84.82;102797.53;5014360;28;20030;-79
2022/12/19 07:20:41;;;;;;;11.65;4.75;;;;;;;4.18;82.54;102834.56;5013978;28;20038;-78
2022/12/19 07:23:10;;;;;;;14.70;5.55;;;;;;;4.11;84.26;102842.38;5014376;28;20085;-78
2022/12/19 07:25:36;;;;;;;12.70;4.88;;;;;;;4.17;85.03;102843.88;5013985;28;20104;-77
2022/12/19 07:28:02;;;;;;;8.98;4.43;;;;;;;4.26;84.77;102848.13;5013965;28;20030;-77
2022/12/19 07:30:27;;;;;;;10.68;5.18;;;;;;;4.27;82.15;102855.94;5013679;28;20068;-78
2022/12/19 07:32:53;;;;;;;15.38;5.90;;;;;;;4.20;85.13;102840.75;4996009;28;20468;-78
2022/12/19 07:35:22;;;;;;;18.40;6.05;;;;;;;4.31;80.42;102870.88;5013238;28;20034;-78
2022/12/19 07:37:48;;;;;;;10.52;5.00;;;;;;;4.22;80.50;102867.38;5013610;28;20527;-78
2022/12/19 07:40:14;;;;;;;11.38;5.30;;;;;;;3.95;81.82;102842.44;5013781;28;20045;-77
2022/12/19 07:42:40;;;;;;;10.80;4.85;;;;;;;4.14;81.27;102852.91;5013516;28;20026;-78
2022/12/19 07:45:06;;;;;;;11.50;5.97;;;;;;;4.16;81.54;102844.66;5013762;28;20034;-83
2022/12/19 07:47:32;;;;;;;14.38;7.28;;;;;;;3.99;81.78;102840.38;4995632;28;20033;-83
2022/12/19 07:49:58;;;;;;;11.40;5.43;;;;;;;4.00;82.81;102823.38;5013477;28;20104;-82
2022/12/19 07:52:23;;;;;;;12.73;5.60;;;;;;;4.07;81.43;102843.69;4996249;28;20484;-80
2022/12/19 07:54:48;;;;;;;13.30;5.47;;;;;;;4.23;83.66;102861.50;5013555;28;20037;-82
2022/12/19 07:57:14;;;;;;;17.80;6.18;;;;;;;3.98;82.41;102838.56;5013416;28;20055;-81
2022/12/19 07:59:39;;;;;;;12.63;6.40;;;;;;;4.14;84.02;102840.13;5013371;28;20476;-82
2022/12/19 08:02:05;;;;;;;13.02;6.45;;;;;;;4.42;81.11;102873.59;5013273;28;20080;-82
2022/12/19 08:04:32;;;;;;;15.85;6.78;;;;;;;4.16;80.87;102813.97;5013248;28;20038;-84
2022/12/19 08:06:57;;;;;;;13.52;9.00;;;;;;;4.38;80.07;102844.25;5013673;28;20061;-81
2022/12/19 08:09:26;;;;;;;18.45;6.93;;;;;;;4.56;80.68;102865.66;5013393;28;20064;-81
2022/12/19 08:11:52;;;;;;;12.90;6.35;;;;;;;4.34;79.81;102837.03;5012294;28;20592;-81
2022/12/19 08:14:17;;;;;;;18.60;7.30;;;;;;;4.51;82.61;102821.72;5013150;28;20030;-81
2022/12/19 08:16:43;;;;;;;11.20;5.97;;;;;;;4.88;80.54;102887.53;5013162;28;20076;-79
2022/12/19 08:19:08;;;;;;;10.43;6.05;;;;;;;4.83;79.30;102866.59;5012283;28;20465;-87
2022/12/19 08:21:33;;;;;;;12.70;5.20;;;;;;;4.84;78.02;102894.00;4995318;28;20026;-85
2022/12/19 08:23:59;;;;;;;12.60;6.07;;;;;;;4.87;79.18;102901.94;5012949;28;20045;-82
2022/12/19 08:26:25;;;;;;;10.82;5.70;;;;;;;4.92;78.00;102900.78;5014444;28;20079;-80
2022/12/19 08:28:55;;;;;;;10.13;5.57;;;;;;;4.94;78.12;102890.69;5012938;28;20107;-80
2022/12/19 08:31:23;;;;;;;14.90;7.03;;;;;;;4.78;76.68;102898.50;5012150;28;20030;-81
2022/12/19 08:33:53;;;;;;;16.15;6.57;;;;;;;4.74;77.86;102893.84;5012127;28;20400;-82
2022/12/19 08:36:20;;;;;;;17.05;7.78;;;;;;;4.70;77.07;102892.63;4959957;28;20041;-82
2022/12/19 08:38:46;;;;;;;12.85;5.43;;;;;;;4.70;79.82;102896.06;5011071;28;20048;-83
2022/12/19 08:41:13;;;;;;;45.45;33.13;;;;;;;4.26;77.90;102909.50;5012137;28;20029;-81
2022/12/19 08:43:38;;;;;;;14.30;8.20;;;;;;;4.15;79.08;102905.84;5012376;28;20508;-81
2022/12/19 08:46:04;;;;;;;18.88;8.63;;;;;;;4.03;81.09;102906.38;5011840;28;20113;-81
2022/12/19 08:48:31;;;;;;;12.02;6.07;;;;;;;4.15;83.60;102905.84;5012198;28;20084;-80
2022/12/19 08:50:59;;;;;;;12.25;5.93;;;;;;;4.24;80.33;102905.88;5012192;28;20084;-80
2022/12/19 08:53:26;;;;;;;12.60;6.47;;;;;;;4.32;81.15;102905.91;5011937;28;20034;-78
2022/12/19 08:55:56;;;;;;;12.55;6.65;;;;;;;4.34;80.62;102893.28;4994569;28;20025;-79
2022/12/19 08:58:23;;;;;;;12.63;6.38;;;;;;;4.24;83.09;102855.66;5012010;28;20037;-76
2022/12/19 09:00:49;;;;;;;13.38;6.53;;;;;;;4.07;82.09;102830.94;4994147;28;20030;-80
2022/12/19 09:03:14;;;;;;;14.25;6.25;;;;;;;4.26;81.50;102861.84;5012067;28;20080;-85
2022/12/19 09:05:39;;;;;;;13.52;7.00;;;;;;;4.14;83.67;102806.91;5011924;28;20029;-81
2022/12/19 09:08:05;;;;;;;11.55;6.38;;;;;;;4.37;79.51;102856.16;4994542;28;20070;-81
2022/12/19 09:10:31;;;;;;;11.02;5.97;;;;;;;4.60;80.52;102880.56;4997506;28;20114;-81
2022/12/19 09:12:57;;;;;;;12.57;6.35;;;;;;;4.55;84.17;102848.50;5011476;28;20038;-83
2022/12/19 09:15:23;;;;;;;13.93;6.97;;;;;;;4.77;83.25;102884.81;5010988;28;20099;-82
2022/12/19 09:17:48;;;;;;;12.35;5.57;;;;;;;4.45;78.99;102833.88;4997567;28;20034;-79
2022/12/19 09:20:14;;;;;;;10.93;5.63;;;;;;;4.65;80.05;102874.25;5006427;28;20022;-84
2022/12/19 09:22:39;;;;;;;15.93;7.88;;;;;;;4.52;78.60;102855.84;5010177;28;20432;-85
2022/12/19 09:25:05;;;;;;;13.15;7.10;;;;;;;4.77;81.88;102876.22;5011848;28;20028;-87
2022/12/19 09:27:31;;;;;;;11.15;5.95;;;;;;;4.70;82.61;102824.41;5011778;28;20447;-86
2022/12/19 09:29:56;;;;;;;11.40;5.25;;;;;;;4.68;79.40;102828.47;5011982;28;20030;-87
2022/12/19 09:32:21;;;;;;;13.00;5.60;;;;;;;4.81;79.77;102858.75;5012012;28;20035;-87
2022/12/19 09:34:47;;;;;;;12.73;5.60;;;;;;;4.52;79.62;102814.91;5012323;28;20072;-87
2022/12/19 09:37:12;;;;;;;11.27;6.28;;;;;;;4.84;79.34;102863.28;5011841;28;20037;-87
2022/12/19 09:39:38;;;;;;;13.68;6.20;;;;;;;4.69;78.88;102814.94;4994033;28;20018;-87
2022/12/19 09:42:28;;;;;;;12.27;6.82;;;;;;;4.92;77.97;102859.81;5012045;28;20033;-87
2022/12/19 09:44:59;;;;;;;10.90;5.60;;;;;;;5.08;78.67;102853.63;5011913;28;20129;-87
2022/12/19 09:47:30;;;;;;;10.85;6.03;;;;;;;5.04;79.80;102841.31;5011638;28;20112;-86
2022/12/19 09:49:57;;;;;;;12.25;6.00;;;;;;;4.98;78.61;102816.88;5011542;28;20571;-85
2022/12/19 09:52:38;;;;;;;12.10;5.75;;;;;;;5.26;79.99;102844.25;4994094;28;20484;-86
2022/12/19 09:55:23;;;;;;;12.38;6.60;;;;;;;5.41;82.04;102845.75;4994037;28;20057;-87
2022/12/19 09:57:51;;;;;;;12.15;6.35;;;;;;;5.11;80.66;102838.56;5011514;28;20029;-86
2022/12/19 10:00:19;;;;;;;11.27;6.05;;;;;;;4.87;78.38;102807.25;5011543;28;20056;-86
2022/12/19 10:03:03;;;;;;;9.35;4.93;;;;;;;5.17;75.18;102849.41;5011260;28;20508;-88
2022/12/19 10:05:48;;;;;;;10.43;5.97;;;;;;;5.04;77.15;102846.41;5011142;28;20492;-87
2022/12/19 10:08:22;;;;;;;9.63;5.07;;;;;;;4.98;74.94;102842.47;5011529;28;20109;-86
2022/12/19 10:11:03;;;;;;;14.88;8.27;;;;;;;4.98;77.86;102837.34;5011418;28;20077;-86
2022/12/19 10:14:07;;;;;;;12.25;5.85;;;;;;;5.16;79.45;102828.03;5011495;28;20029;-86
2022/12/19 10:17:19;;;;;;;10.70;6.50;;;;;;;5.00;76.34;102824.72;4912630;29;20043;-87
2022/12/19 10:20:09;;;;;;;11.15;5.22;;;;;;;5.02;77.12;102833.44;4837657;29;20050;-86
2022/12/19 10:22:49;;;;;;;8.75;4.68;;;;;;;5.04;76.83;102823.38;4822687;29;20029;-86
2022/12/19 10:25:47;;;;;;;9.30;4.75;;;;;;;5.18;77.98;102821.41;4837709;29;20240;-86
2022/12/19 10:28:27;;;;;;;11.90;5.60;;;;;;;5.27;77.70;102821.38;4835082;29;20061;-87
2022/12/19 10:31:16;;;;;;;15.02;5.88;;;;;;;5.46;78.98;102808.66;4816592;29;20053;-87
2022/12/19 10:34:09;;;;;;;9.73;4.93;;;;;;;5.43;75.62;102774.16;4823561;29;20042;-87
2022/12/19 10:36:43;;;;;;;14.00;5.60;;;;;;;5.39;78.51;102772.97;4819486;29;20057;-87
2022/12/19 10:39:14;;;;;;;7.95;4.30;;;;;;;5.46;75.06;102792.41;4818023;29;20045;-87
2022/12/19 10:41:43;;;;;;;10.32;5.13;;;;;;;5.26;77.54;102785.34;4819384;29;20633;-86
2022/12/19 10:44:09;;;;;;;9.57;5.35;;;;;;;5.50;77.37;102805.63;4819323;29;20077;-86
2022/12/19 10:46:34;;;;;;;11.60;5.80;;;;;;;5.41;78.21;102804.78;4819702;29;20034;-86
2022/12/19 10:49:05;;;;;;;16.52;6.38;;;;;;;5.29;80.81;102773.75;4819340;29;20545;-86
2022/12/19 10:51:30;;;;;;;13.48;6.18;;;;;;;5.48;76.47;102802.03;4819379;29;20130;-87
2022/12/19 10:53:59;;;;;;;14.32;5.78;;;;;;;5.43;78.79;102793.03;4860219;29;20491;-87
2022/12/19 10:56:29;;;;;;;9.50;5.00;;;;;;;4.82;77.41;102722.38;4921103;28;20121;-86
2022/12/19 10:58:57;;;;;;;40.05;18.80;;;;;;;5.27;78.38;102798.34;4973609;28;20129;-86
2022/12/19 11:01:32;;;;;;;23.35;11.88;;;;;;;5.34;79.58;102787.91;4990930;28;20031;-87
2022/12/19 11:04:29;;;;;;;19.70;10.40;;;;;;;5.42;79.30;102796.34;4991329;28;20054;-86
2022/12/19 11:07:01;;;;;;;16.40;8.95;;;;;;;5.62;80.42;102800.78;4972558;28;20038;-86
2022/12/19 11:09:36;;;;;;;13.60;7.95;;;;;;;5.57;79.43;102761.03;4991025;28;20473;-86
2022/12/19 11:12:07;;;;;;;14.38;7.00;;;;;;;5.73;80.91;102778.75;4990806;28;20042;-86
2022/12/19 11:14:35;;;;;;;13.45;6.28;;;;;;;5.45;78.00;102734.25;4991090;28;20041;-86
2022/12/19 11:17:02;;;;;;;15.95;7.72;;;;;;;5.79;79.98;102779.28;4993290;28;20026;-88
2022/12/19 11:19:37;;;;;;;9.90;4.93;;;;;;;5.90;79.53;102775.16;5030401;28;20120;-86
2022/12/19 11:22:06;;;;;;;15.13;7.40;;;;;;;5.80;81.00;102732.38;5029985;28;20038;-85
2022/12/19 11:24:46;;;;;;;12.32;5.80;;;;;;;5.95;78.58;102763.69;5012402;28;20029;-85
2022/12/19 11:27:40;;;;;;;13.45;7.30;;;;;;;6.09;80.21;102769.22;5030235;28;20040;-85
2022/12/19 11:30:21;;;;;;;9.68;5.30;;;;;;;5.98;80.09;102769.13;5012376;28;20091;-86
2022/12/19 11:32:48;;;;;;;10.25;4.68;;;;;;;6.02;78.84;102770.31;5029855;28;20063;-85